createdAt,value
2019-04-21T00:00:11.835Z,77.20
2019-04-21T00:02:42.787Z,77.47
2019-04-21T00:05:33.402Z,77.43
2019-04-21T00:08:10.893Z,69.07
2019-04-21T00:10:38.248Z,69.20
2019-04-21T00:13:00.401Z,78.00
2019-04-21T00:15:24.391Z,76.00
2019-04-21T00:17:52.713Z,69.07
2019-04-21T00:20:32.308Z,77.30
2019-04-21T00:23:10.218Z,70.37
2019-04-21T00:25:36.159Z,77.20
2019-04-21T00:28:21.955Z,81.20
2019-04-21T00:30:44.354Z,71.30
2019-04-21T00:33:06.925Z,79.60
2019-04-21T00:35:29.420Z,84.47
2019-04-21T00:38:22.749Z,79.03
2019-04-21T00:40:56.493Z,78.27
2019-04-21T00:43:19.772Z,87.63
2019-04-21T00:45:44.862Z,77.30
2019-04-21T00:48:22.976Z,82.90
2019-04-21T00:51:12.326Z,73.27
2019-04-21T00:56:20.137Z,79.50
2019-04-21T01:01:24.879Z,84.57
2019-04-21T01:03:58.124Z,78.70
2019-04-21T01:06:30.216Z,85.70
2019-04-21T01:09:01.186Z,76.10
2019-04-21T01:11:38.978Z,82.77
2019-04-21T01:14:10.062Z,76.83
2019-04-21T01:16:35.960Z,74.50
2019-04-21T01:19:02.269Z,73.70
2019-04-21T01:21:14.702Z,75.53
2019-04-21T01:23:44.661Z,73.20
2019-04-21T01:26:31.094Z,82.73
2019-04-21T01:29:06.742Z,68.23
2019-04-21T01:31:40.432Z,79.70
2019-04-21T01:34:15.142Z,82.47
2019-04-21T01:36:47.438Z,79.53
2019-04-21T01:40:16.933Z,73.17
2019-04-21T01:42:43.219Z,77.30
2019-04-21T01:45:11.417Z,66.43
2019-04-21T01:47:40.836Z,81.70
2019-04-21T01:49:59.508Z,80.63
2019-04-21T01:52:50.223Z,74.07
2019-04-21T01:55:35.663Z,81.70
2019-04-21T01:58:03.306Z,84.17
2019-04-21T02:00:44.821Z,74.17
2019-04-21T02:03:45.326Z,70.27
2019-04-21T02:05:59.966Z,79.37
2019-04-21T02:08:24.275Z,72.20
2019-04-21T02:11:02.951Z,75.27
2019-04-21T02:13:26.380Z,76.50
2019-04-21T02:16:02.149Z,72.47
2019-04-21T02:18:28.215Z,83.97
2019-04-21T02:20:48.274Z,73.83
2019-04-21T02:23:43.956Z,74.50
2019-04-21T02:26:03.310Z,74.27
2019-04-21T02:28:45.134Z,72.37
2019-04-21T02:33:54.279Z,73.90
2019-04-21T02:38:59.883Z,75.33
2019-04-21T02:41:21.442Z,70.57
2019-04-21T02:44:00.607Z,74.93
2019-04-21T02:46:35.305Z,81.50
2019-04-21T02:49:13.476Z,72.60
2019-04-21T02:51:34.630Z,73.80
2019-04-21T02:59:23.335Z,79.40
2019-04-21T03:02:31.397Z,83.63
2019-04-21T03:05:29.659Z,86.20
2019-04-21T03:07:42.721Z,91.10
2019-04-21T03:10:17.817Z,81.53
2019-04-21T03:18:08.267Z,86.50
2019-04-21T03:22:57.341Z,80.70
2019-04-21T03:25:33.659Z,78.73
2019-04-21T03:30:55.570Z,87.30
2019-04-21T03:38:03.029Z,58.37
2019-04-21T03:43:04.435Z,72.80
2019-04-21T03:45:42.778Z,83.22
2019-04-21T03:48:23.860Z,83.40
2019-04-21T03:50:42.782Z,79.93
2019-04-21T03:55:53.215Z,93.20
2019-04-21T03:58:30.391Z,79.60
2019-04-21T04:01:22.104Z,84.67
2019-04-21T04:04:22.425Z,88.47
2019-04-21T04:12:13.278Z,77.87
2019-04-21T04:14:47.412Z,80.23
2019-04-21T04:19:51.636Z,82.73
2019-04-21T04:22:24.184Z,78.53
2019-04-21T04:25:05.139Z,71.53
2019-04-21T04:29:52.425Z,80.83
2019-04-21T04:32:26.403Z,84.80
2019-04-21T04:34:59.471Z,87.27
2019-04-21T04:43:09.822Z,84.93
2019-04-21T04:50:51.489Z,82.03
2019-04-21T04:53:26.721Z,94.23
2019-04-21T04:58:44.595Z,79.83
2019-04-21T05:00:52.120Z,80.47
2019-04-21T05:03:24.363Z,81.40
2019-04-21T05:09:15.300Z,86.60
2019-04-21T05:14:13.325Z,85.40
2019-04-21T05:22:12.840Z,91.60
2019-04-21T05:24:00.056Z,87.33
2019-04-21T05:26:27.458Z,81.57
2019-04-21T05:28:55.495Z,83.03
2019-04-21T05:32:01.443Z,83.47
2019-04-21T05:34:27.376Z,78.90
2019-04-21T05:37:20.098Z,86.67
2019-04-21T05:39:51.425Z,80.83
2019-04-21T05:42:15.364Z,79.33
2019-04-21T05:45:01.774Z,78.50
2019-04-21T05:47:40.178Z,75.40
2019-04-21T05:50:12.360Z,85.33
2019-04-21T05:52:54.659Z,81.10
2019-04-21T05:58:02.707Z,71.63
2019-04-21T06:00:55.922Z,76.07
2019-04-21T06:03:10.073Z,71.90
2019-04-21T06:05:42.499Z,76.70
2019-04-21T06:08:12.901Z,71.43
2019-04-21T06:10:50.874Z,67.47
2019-04-21T06:13:22.039Z,74.73
2019-04-21T06:18:32.967Z,68.43
2019-04-21T06:20:56.676Z,66.97
2019-04-21T06:23:28.711Z,67.00
2019-04-21T06:26:12.168Z,60.30
2019-04-21T06:28:35.949Z,68.07
2019-04-21T06:31:08.107Z,64.50
2019-04-21T06:33:44.670Z,64.80
2019-04-21T06:39:06.158Z,58.23
2019-04-21T06:44:09.603Z,66.20
2019-04-21T06:46:44.721Z,75.37
2019-04-21T06:49:02.610Z,76.80
2019-04-21T06:51:35.976Z,74.40
2019-04-21T06:54:10.211Z,72.93
2019-04-21T06:56:47.990Z,61.37
2019-04-21T06:59:09.652Z,66.93
2019-04-21T07:01:54.705Z,72.13
2019-04-21T07:04:20.304Z,76.70
2019-04-21T07:06:50.110Z,70.13
2019-04-21T07:11:44.488Z,72.43
2019-04-21T07:19:30.318Z,81.80
2019-04-21T07:21:57.476Z,75.33
2019-04-21T07:24:32.004Z,71.20
2019-04-21T07:27:02.613Z,62.57
2019-04-21T07:29:34.679Z,63.10
2019-04-21T07:32:04.919Z,78.33
2019-04-21T07:34:37.971Z,79.30
2019-04-21T07:37:05.782Z,72.40
2019-04-21T07:39:34.019Z,68.20
2019-04-21T07:42:10.853Z,68.40
2019-04-21T07:44:39.192Z,68.57
2019-04-21T07:47:17.168Z,71.27
2019-04-21T07:50:00.914Z,74.10
2019-04-21T07:52:42.644Z,67.67
2019-04-21T07:55:19.666Z,69.47
2019-04-21T07:57:36.868Z,64.77
2019-04-21T08:02:43.556Z,56.80
2019-04-21T08:07:57.134Z,53.40
2019-04-21T08:10:19.972Z,60.70
2019-04-21T08:12:53.056Z,59.93
2019-04-21T08:15:30.634Z,51.20
2019-04-21T08:18:06.696Z,52.13
2019-04-21T08:20:18.691Z,48.97
2019-04-21T08:25:32.795Z,58.67
2019-04-21T08:27:59.778Z,74.10
2019-04-21T08:30:32.015Z,54.27
2019-04-21T08:35:55.332Z,45.50
2019-04-21T08:38:08.525Z,49.33
2019-04-21T08:40:51.609Z,46.87
2019-04-21T08:43:10.861Z,47.93
2019-04-21T08:45:41.655Z,45.50
2019-04-21T08:48:12.367Z,43.10
2019-04-21T08:50:36.372Z,36.87
2019-04-21T08:53:19.602Z,45.33
2019-04-21T08:56:21.751Z,40.60
2019-04-21T09:01:53.213Z,38.10
2019-04-21T09:04:24.531Z,40.20
2019-04-21T09:09:29.402Z,35.07
2019-04-21T09:11:59.110Z,38.07
2019-04-21T09:14:31.052Z,35.83
2019-04-21T09:16:56.436Z,35.77
2019-04-21T09:19:47.071Z,32.97
2019-04-21T09:22:07.109Z,35.60
2019-04-21T09:24:41.495Z,29.80
2019-04-21T09:27:08.395Z,35.90
2019-04-21T09:29:31.027Z,23.97
2019-04-21T09:31:56.284Z,33.17
2019-04-21T09:34:35.798Z,31.57
2019-04-21T09:37:12.520Z,27.73
2019-04-21T09:39:31.504Z,22.30
2019-04-21T09:42:02.765Z,19.47
2019-04-21T09:44:35.080Z,21.33
2019-04-21T09:47:05.089Z,19.60
2019-04-21T09:49:33.942Z,26.40
2019-04-21T09:52:06.685Z,20.10
2019-04-21T09:54:46.162Z,18.87
2019-04-21T09:57:14.425Z,15.43
2019-04-21T09:59:43.513Z,11.70
2019-04-21T10:02:16.070Z,13.77
2019-04-21T10:04:42.467Z,14.70
2019-04-21T10:07:24.559Z,14.07
2019-04-21T10:09:45.643Z,13.90
2019-04-21T10:12:16.144Z,11.47
2019-04-21T10:14:45.618Z,12.33
2019-04-21T10:17:35.052Z,11.50
2019-04-21T10:20:09.346Z,12.33
2019-04-21T10:22:39.391Z,12.33
2019-04-21T10:25:10.573Z,9.40
2019-04-21T10:27:41.239Z,12.30
2019-04-21T10:30:12.397Z,11.03
2019-04-21T10:32:42.825Z,13.33
2019-04-21T10:35:12.916Z,11.27
2019-04-21T10:37:56.352Z,10.17
2019-04-21T10:40:15.848Z,8.17
2019-04-21T10:42:46.021Z,16.63
2019-04-21T10:45:17.057Z,14.33
2019-04-21T10:47:47.192Z,10.00
2019-04-21T10:50:18.275Z,9.53
2019-04-21T10:53:05.157Z,7.20
2019-04-21T10:55:53.577Z,9.77
2019-04-21T10:58:10.928Z,9.73
2019-04-21T11:00:42.088Z,8.37
2019-04-21T11:03:48.894Z,9.93
2019-04-21T11:06:20.991Z,8.47
2019-04-21T11:08:55.616Z,9.97
2019-04-21T11:11:25.838Z,12.20
2019-04-21T11:13:56.669Z,10.20
2019-04-21T11:16:26.964Z,10.83
2019-04-21T11:18:57.795Z,12.27
2019-04-21T11:21:27.406Z,10.87
2019-04-21T11:23:58.423Z,13.20
2019-04-21T11:26:27.791Z,8.87
2019-04-21T11:28:58.899Z,8.40
2019-04-21T11:31:29.257Z,11.17
2019-04-21T11:34:00.890Z,9.70
2019-04-21T11:36:31.326Z,11.77
2019-04-21T11:39:31.608Z,13.97
2019-04-21T11:41:54.119Z,10.10
2019-04-21T11:44:24.729Z,12.53
2019-04-21T11:46:58.379Z,33.13
2019-04-21T11:49:49.330Z,8.00
2019-04-21T11:52:18.896Z,8.77
2019-04-21T11:54:48.971Z,10.03
2019-04-21T11:57:24.818Z,8.60
2019-04-21T11:59:53.511Z,15.27
2019-04-21T12:02:25.678Z,11.43
2019-04-21T12:04:55.186Z,12.47
2019-04-21T12:07:25.133Z,9.10
2019-04-21T12:09:55.993Z,12.30
2019-04-21T12:12:25.430Z,10.50
2019-04-21T12:14:54.758Z,7.50
2019-04-21T12:17:24.095Z,7.90
2019-04-21T12:19:56.905Z,11.97
2019-04-21T12:22:31.616Z,7.07
2019-04-21T12:24:58.521Z,8.47
2019-04-21T12:27:28.132Z,9.20
2019-04-21T12:29:59.614Z,11.90
2019-04-21T12:32:48.602Z,10.53
2019-04-21T12:35:18.123Z,8.70
2019-04-21T12:37:51.055Z,11.20
2019-04-21T12:40:20.969Z,6.67
2019-04-21T12:42:50.498Z,9.40
2019-04-21T12:45:24.055Z,7.47
2019-04-21T12:47:55.780Z,11.50
2019-04-21T12:50:25.818Z,10.27
2019-04-21T12:52:57.784Z,9.93
2019-04-21T12:55:31.582Z,8.33
2019-04-21T12:57:59.411Z,18.57
2019-04-21T13:00:29.083Z,11.00
2019-04-21T13:02:59.717Z,9.80
2019-04-21T13:05:29.673Z,9.40
2019-04-21T13:08:00.097Z,9.40
2019-04-21T13:10:30.543Z,10.53
2019-04-21T13:13:01.797Z,13.40
2019-04-21T13:15:31.457Z,16.33
2019-04-21T13:18:02.586Z,10.73
2019-04-21T13:20:32.044Z,11.83
2019-04-21T13:23:03.896Z,10.73
2019-04-21T13:25:34.314Z,11.60
2019-04-21T13:28:04.999Z,10.93
2019-04-21T13:30:34.511Z,9.40
2019-04-21T13:33:05.276Z,19.13
2019-04-21T13:35:35.248Z,9.73
2019-04-21T13:38:17.256Z,11.00
2019-04-21T13:41:11.440Z,15.73
2019-04-21T13:43:27.348Z,9.43
2019-04-21T13:45:57.517Z,9.50
2019-04-21T13:48:28.610Z,10.30
2019-04-21T13:50:59.444Z,9.93
2019-04-21T13:53:29.507Z,11.00
2019-04-21T13:56:00.294Z,8.57
2019-04-21T13:58:30.450Z,11.63
2019-04-21T14:01:03.416Z,12.33
2019-04-21T14:03:33.819Z,11.90
2019-04-21T14:06:04.518Z,13.00
2019-04-21T14:08:34.068Z,10.43
2019-04-21T14:11:03.313Z,12.40
2019-04-21T14:13:32.692Z,12.37
2019-04-21T14:16:02.323Z,13.13
2019-04-21T14:18:32.909Z,12.07
2019-04-21T14:21:03.197Z,11.63
2019-04-21T14:23:38.632Z,15.70
2019-04-21T14:26:03.971Z,17.30
2019-04-21T14:28:33.549Z,11.80
2019-04-21T14:31:04.582Z,13.03
2019-04-21T14:33:34.277Z,13.60
2019-04-21T14:36:05.105Z,16.53
2019-04-21T14:38:34.574Z,15.87
2019-04-21T14:41:04.066Z,12.73
2019-04-21T14:43:36.119Z,13.10
2019-04-21T14:46:21.462Z,12.40
2019-04-21T14:49:09.076Z,14.40
2019-04-21T14:51:49.295Z,12.60
2019-04-21T14:54:38.598Z,15.30
2019-04-21T14:57:09.594Z,13.53
2019-04-21T14:59:39.282Z,12.67
2019-04-21T15:02:09.839Z,12.53
2019-04-21T15:04:39.781Z,11.60
2019-04-21T15:07:09.706Z,13.27
2019-04-21T15:09:41.031Z,12.20
2019-04-21T15:12:10.134Z,12.50
2019-04-21T15:14:40.295Z,12.23
2019-04-21T15:17:10.033Z,12.37
2019-04-21T15:19:42.924Z,12.70
2019-04-21T15:22:10.657Z,16.17
2019-04-21T15:24:40.465Z,17.30
2019-04-21T15:27:09.885Z,15.27
2019-04-21T15:29:40.404Z,12.83
2019-04-21T15:32:10.581Z,14.57
2019-04-21T15:34:42.378Z,16.63
2019-04-21T15:37:13.717Z,11.63
2019-04-21T15:39:44.959Z,15.60
2019-04-21T15:42:16.746Z,14.40
2019-04-21T15:44:48.451Z,12.77
2019-04-21T15:47:18.251Z,15.87
2019-04-21T15:50:03.010Z,15.67
2019-04-21T15:52:27.952Z,16.97
2019-04-21T15:55:10.629Z,9.50
2019-04-21T15:58:04.758Z,10.07
2019-04-21T16:00:49.615Z,8.47
2019-04-21T16:03:22.624Z,14.27
2019-04-21T16:05:53.686Z,9.90
2019-04-21T16:08:23.085Z,11.83
2019-04-21T16:10:58.159Z,11.23
2019-04-21T16:13:25.699Z,12.20
2019-04-21T16:15:56.814Z,16.43
2019-04-21T16:18:27.818Z,12.00
2019-04-21T16:20:57.773Z,14.47
2019-04-21T16:23:28.665Z,10.00
2019-04-21T16:25:59.098Z,14.80
2019-04-21T16:28:31.187Z,11.47
2019-04-21T16:31:00.595Z,16.63
2019-04-21T16:33:31.288Z,15.80
2019-04-21T16:36:02.077Z,9.30
2019-04-21T16:38:33.441Z,12.13
2019-04-21T16:41:05.503Z,11.70
2019-04-21T16:43:37.404Z,14.83
2019-04-21T16:46:08.880Z,12.03
2019-04-21T16:48:39.898Z,11.03
2019-04-21T16:51:09.909Z,11.90
2019-04-21T16:53:53.120Z,13.47
2019-04-21T16:56:26.941Z,11.37
2019-04-21T16:59:34.710Z,10.50
2019-04-21T17:02:04.830Z,12.73
2019-04-21T17:04:36.205Z,14.40
2019-04-21T17:07:07.524Z,11.00
2019-04-21T17:09:36.918Z,10.80
2019-04-21T17:12:09.929Z,8.80
2019-04-21T17:14:53.613Z,11.07
2019-04-21T17:17:35.172Z,9.30
2019-04-21T17:19:46.649Z,12.33
2019-04-21T17:22:13.680Z,14.10
2019-04-21T17:24:46.388Z,13.03
2019-04-21T17:27:17.330Z,11.47
2019-04-21T17:29:48.738Z,8.07
2019-04-21T17:32:18.528Z,10.37
2019-04-21T17:34:52.031Z,12.70
2019-04-21T17:37:25.019Z,8.77
2019-04-21T17:39:52.618Z,10.10
2019-04-21T17:42:29.809Z,12.07
2019-04-21T17:44:53.132Z,13.20
2019-04-21T17:47:32.144Z,12.93
2019-04-21T17:50:25.315Z,9.40
2019-04-21T17:53:06.336Z,9.50
2019-04-21T17:55:34.879Z,13.10
2019-04-21T17:58:14.971Z,16.90
2019-04-21T18:01:13.969Z,8.73
2019-04-21T18:03:42.145Z,13.53
2019-04-21T18:06:01.007Z,9.33
2019-04-21T18:08:32.574Z,12.30
2019-04-21T18:10:59.419Z,10.13
2019-04-21T18:13:21.335Z,11.70
2019-04-21T18:16:02.913Z,11.33
2019-04-21T18:18:23.181Z,10.90
2019-04-21T18:20:58.676Z,11.60
2019-04-21T18:24:03.470Z,17.03
2019-04-21T18:26:35.679Z,10.53
2019-04-21T18:28:57.315Z,14.17
2019-04-21T18:31:26.908Z,12.87
2019-04-21T18:34:11.051Z,13.87
2019-04-21T18:36:58.889Z,13.10
2019-04-21T18:39:55.895Z,13.50
2019-04-21T18:42:57.559Z,18.37
2019-04-21T18:48:27.120Z,15.27
2019-04-21T18:51:06.148Z,11.40
2019-04-21T18:53:47.728Z,13.53
2019-04-21T18:56:12.929Z,15.83
2019-04-21T18:58:40.539Z,14.13
2019-04-21T19:01:17.837Z,12.47
2019-04-21T19:03:43.525Z,16.30
2019-04-21T19:06:18.707Z,16.43
2019-04-21T19:09:07.200Z,11.20
2019-04-21T19:11:31.185Z,14.37
2019-04-21T19:17:10.758Z,10.67
2019-04-21T19:22:00.087Z,10.90
2019-04-21T19:24:36.945Z,17.10
2019-04-21T19:27:08.209Z,10.97
2019-04-21T19:29:35.936Z,11.97
2019-04-21T19:32:08.821Z,11.77
2019-04-21T19:34:25.817Z,10.47
2019-04-21T19:37:03.076Z,11.90
2019-04-21T19:39:39.388Z,13.43
2019-04-21T19:42:09.976Z,12.00
2019-04-21T19:44:47.063Z,12.33
2019-04-21T19:47:22.867Z,22.63
2019-04-21T19:49:54.040Z,14.10
2019-04-21T19:52:09.423Z,20.32
2019-04-21T19:54:39.770Z,15.47
2019-04-21T19:57:07.068Z,19.47
2019-04-21T19:59:47.084Z,12.77
2019-04-21T20:02:09.064Z,16.37
2019-04-21T20:04:45.445Z,20.10
2019-04-21T20:07:23.437Z,20.10
2019-04-21T20:10:03.468Z,21.00
2019-04-21T20:12:38.221Z,21.03
2019-04-21T20:15:14.833Z,16.80
2019-04-21T20:17:35.120Z,17.77
2019-04-21T20:19:50.064Z,18.93
2019-04-21T20:22:23.989Z,20.70
2019-04-21T20:24:58.632Z,22.53
2019-04-21T20:27:34.948Z,22.03
2019-04-21T20:30:19.249Z,27.03
2019-04-21T20:32:46.382Z,23.40
2019-04-21T20:35:25.027Z,23.73
2019-04-21T20:37:48.027Z,30.60
2019-04-21T20:40:15.954Z,23.20
2019-04-21T20:42:47.018Z,26.10
2019-04-21T20:45:34.883Z,24.40
2019-04-21T20:47:44.746Z,30.67
2019-04-21T20:50:19.642Z,24.93
2019-04-21T20:52:59.013Z,25.80
2019-04-21T20:55:22.488Z,25.70
2019-04-21T20:57:59.649Z,24.77
2019-04-21T21:00:45.915Z,27.20
2019-04-21T21:03:12.200Z,25.03
2019-04-21T21:05:37.566Z,23.40
2019-04-21T21:08:17.957Z,25.63
2019-04-21T21:10:38.584Z,22.83
2019-04-21T21:13:22.703Z,26.63
2019-04-21T21:16:01.135Z,27.60
2019-04-21T21:18:26.190Z,24.03
2019-04-21T21:20:49.405Z,32.23
2019-04-21T21:23:12.667Z,27.70
2019-04-21T21:25:50.751Z,27.13
2019-04-21T21:28:16.990Z,23.50
2019-04-21T21:30:52.844Z,28.10
2019-04-21T21:33:25.746Z,26.10
2019-04-21T21:35:56.682Z,27.13
2019-04-21T21:38:30.979Z,26.63
2019-04-21T21:40:57.227Z,30.10
2019-04-21T21:43:19.887Z,32.90
2019-04-21T21:45:54.976Z,32.13
2019-04-21T21:48:32.071Z,29.30
2019-04-21T21:51:03.334Z,33.60
2019-04-21T21:53:24.838Z,30.10
2019-04-21T21:55:53.270Z,33.50
2019-04-21T21:58:27.455Z,30.97
2019-04-21T22:01:00.739Z,29.73
2019-04-21T22:03:33.625Z,31.23
2019-04-21T22:06:05.039Z,32.70
2019-04-21T22:08:30.452Z,29.47
2019-04-21T22:11:01.227Z,32.27
2019-04-21T22:13:37.566Z,35.03
2019-04-21T22:16:09.952Z,30.73
2019-04-21T22:18:56.834Z,31.50
2019-04-21T22:21:20.275Z,33.10
2019-04-21T22:23:52.845Z,32.73
2019-04-21T22:26:11.367Z,33.17
2019-04-21T22:28:40.941Z,28.80
2019-04-21T22:31:15.455Z,29.70
2019-04-21T22:34:05.540Z,31.07
2019-04-21T22:36:47.119Z,35.87
2019-04-21T22:39:30.672Z,34.20
2019-04-21T22:41:45.004Z,32.93
2019-04-21T22:44:16.541Z,33.37
2019-04-21T22:46:59.975Z,31.37
2019-04-21T22:49:18.640Z,34.60
2019-04-21T22:51:51.833Z,34.37
2019-04-21T22:54:29.636Z,32.50
2019-04-21T22:57:04.214Z,30.52
2019-04-21T22:59:25.978Z,40.50
2019-04-21T23:01:55.828Z,32.40
2019-04-21T23:04:35.568Z,37.03
2019-04-21T23:07:02.879Z,38.03
2019-04-21T23:09:28.837Z,39.53
2019-04-21T23:12:01.884Z,44.53
2019-04-21T23:14:33.870Z,46.27
2019-04-21T23:17:24.125Z,48.93
2019-04-21T23:19:46.212Z,54.50
2019-04-21T23:22:24.837Z,66.33
2019-04-21T23:24:59.253Z,67.30
2019-04-21T23:27:20.587Z,69.17
2019-04-21T23:29:58.987Z,74.20
2019-04-21T23:32:23.612Z,68.10
2019-04-21T23:34:40.738Z,78.53
2019-04-21T23:37:17.759Z,70.63
2019-04-21T23:39:41.848Z,80.63
2019-04-21T23:42:20.767Z,73.73
2019-04-21T23:44:52.416Z,77.83
2019-04-21T23:47:30.371Z,75.13
2019-04-21T23:49:58.409Z,74.27
2019-04-21T23:52:19.844Z,77.50
2019-04-21T23:54:51.656Z,79.60
2019-04-21T23:57:31.723Z,65.97
2019-04-21T23:59:55.569Z,66.03
